createdAt,value
2018-06-25T00:01:47.690Z,3.78
2018-06-25T00:07:42.622Z,3.77
2018-06-25T00:13:37.604Z,4.07
2018-06-25T00:19:32.657Z,3.73
2018-06-25T00:25:27.665Z,3.36
2018-06-25T00:31:22.626Z,4.02
2018-06-25T00:37:17.641Z,3.72
2018-06-25T00:43:12.604Z,4.35
2018-06-25T00:49:07.633Z,3.83
2018-06-25T00:55:02.616Z,3.78
2018-06-25T01:00:57.596Z,3.83
2018-06-25T01:06:52.604Z,3.8
2018-06-25T01:12:47.708Z,3.53
2018-06-25T01:18:42.682Z,3.4
2018-06-25T01:24:37.623Z,3.71
2018-06-25T01:30:32.623Z,3.54
2018-06-25T01:36:27.643Z,3.74
2018-06-25T01:42:22.640Z,3.7
2018-06-25T01:48:17.735Z,3.92
2018-06-25T01:54:12.612Z,3.46
2018-06-25T02:00:07.644Z,3.14
2018-06-25T02:06:02.607Z,3.66
2018-06-25T02:11:57.620Z,3.61
2018-06-25T02:17:52.635Z,3.65
2018-06-25T02:23:47.658Z,4.31
2018-06-25T02:29:42.621Z,3.71
2018-06-25T02:35:37.675Z,4.16
2018-06-25T02:41:32.625Z,4.34
2018-06-25T02:47:27.635Z,4.64
2018-06-25T02:53:22.687Z,4.27
2018-06-25T02:59:17.687Z,4.37
2018-06-25T03:05:12.702Z,4.47
2018-06-25T03:11:07.642Z,4.2
2018-06-25T03:17:02.660Z,3.93
2018-06-25T03:22:57.644Z,4.23
2018-06-25T03:28:52.620Z,4.2
2018-06-25T03:34:47.694Z,4.43
2018-06-25T03:40:42.617Z,4.13
2018-06-25T03:46:37.677Z,4.26
2018-06-25T03:52:32.614Z,4.29
2018-06-25T03:58:27.607Z,4.17
2018-06-25T04:04:22.617Z,3.98
2018-06-25T04:10:17.605Z,4.8
2018-06-25T04:16:12.622Z,4.85
2018-06-25T04:22:07.659Z,5.43
2018-06-25T04:28:02.705Z,4.45
2018-06-25T04:33:57.644Z,4.43
2018-06-25T04:39:52.666Z,4.81
2018-06-25T04:45:47.661Z,4.54
2018-06-25T04:51:42.689Z,4.82
2018-06-25T04:57:37.686Z,3.95
2018-06-25T05:03:33.579Z,4.14
2018-06-25T05:09:27.683Z,4.46
2018-06-25T05:15:22.683Z,4.61
2018-06-25T05:21:17.654Z,4.56
2018-06-25T05:27:12.658Z,4.51
2018-06-25T05:33:07.635Z,4.77
2018-06-25T05:39:02.618Z,3.57
2018-06-25T05:44:57.624Z,3.94
2018-06-25T05:50:52.831Z,4.05
2018-06-25T05:56:47.675Z,4.32
2018-06-25T06:02:42.647Z,4.53
2018-06-25T06:08:37.706Z,4.25
2018-06-25T06:14:32.670Z,4.7
2018-06-25T06:20:27.627Z,4.92
2018-06-25T06:26:22.743Z,3.78
2018-06-25T06:32:17.695Z,4
2018-06-25T06:38:12.686Z,3.83
2018-06-25T06:44:07.672Z,3.94
2018-06-25T06:50:02.761Z,4.97
2018-06-25T06:55:57.642Z,4.63
2018-06-25T07:01:52.649Z,4.38
2018-06-25T07:07:47.728Z,4.7
2018-06-25T07:13:42.618Z,4.26
2018-06-25T07:19:37.648Z,4.82
2018-06-25T07:25:32.726Z,8.16
2018-06-25T07:31:27.637Z,6.82
2018-06-25T07:37:22.710Z,7.61
2018-06-25T07:43:17.660Z,8.11
2018-06-25T07:49:12.679Z,8.47
2018-06-25T07:55:07.665Z,6.6
2018-06-25T08:01:02.627Z,9.03
2018-06-25T08:06:57.667Z,6.39
2018-06-25T08:12:52.644Z,6.83
2018-06-25T08:18:47.688Z,4.8
2018-06-25T08:24:42.652Z,4.81
2018-06-25T08:30:37.667Z,5.2
2018-06-25T08:36:32.649Z,3.75
2018-06-25T08:42:27.706Z,4.83
2018-06-25T08:48:22.699Z,2.89
2018-06-25T08:54:17.686Z,3.26
2018-06-25T09:00:12.653Z,2.66
2018-06-25T09:06:07.707Z,2.85
2018-06-25T09:12:02.732Z,3.27
2018-06-25T09:17:57.631Z,2.67
2018-06-25T09:23:52.671Z,2.89
2018-06-25T09:29:47.696Z,2.27
2018-06-25T09:35:42.656Z,2.73
2018-06-25T09:41:37.934Z,2.34
2018-06-25T09:47:32.689Z,3.24
2018-06-25T09:53:27.664Z,2.6
2018-06-25T09:59:22.672Z,2.28
2018-06-25T10:05:17.674Z,2.59
2018-06-25T10:11:12.676Z,2.7
2018-06-25T10:17:07.659Z,2.65
2018-06-25T10:23:02.698Z,2.62
2018-06-25T10:28:57.665Z,2.65
2018-06-25T10:34:52.749Z,2.58
2018-06-25T10:40:47.669Z,2.52
2018-06-25T10:46:42.696Z,2.75
2018-06-25T10:52:37.662Z,3.06
2018-06-25T10:58:32.715Z,2.5
2018-06-25T11:04:27.712Z,2.19
2018-06-25T11:10:22.668Z,1.83
2018-06-25T11:16:17.666Z,1.87
2018-06-25T11:22:12.698Z,1.73
2018-06-25T11:28:07.700Z,1.66
2018-06-25T11:34:02.729Z,2.26
2018-06-25T11:39:57.791Z,2.26
2018-06-25T11:45:52.765Z,3.63
2018-06-25T11:51:47.737Z,2.3
2018-06-25T11:57:42.742Z,2.19
2018-06-25T12:03:37.667Z,2.4
2018-06-25T12:09:32.677Z,2.24
2018-06-25T12:15:27.710Z,2.92
2018-06-25T12:21:22.755Z,3.5
2018-06-25T12:27:17.695Z,5.36
2018-06-25T12:33:12.705Z,3.41
2018-06-25T12:39:07.712Z,3.85
2018-06-25T12:45:02.746Z,2.48
2018-06-25T12:50:57.755Z,2.41
2018-06-25T12:56:52.679Z,2.34
2018-06-25T13:02:47.704Z,2.09
2018-06-25T13:08:42.685Z,2.06
2018-06-25T13:14:37.749Z,2.01
2018-06-25T13:20:32.759Z,2.25
2018-06-25T13:26:27.679Z,2.22
2018-06-25T13:32:22.715Z,2.42
2018-06-25T13:38:17.725Z,1.99
2018-06-25T13:44:12.696Z,2.18
2018-06-25T13:50:07.748Z,2.96
2018-06-25T13:56:02.705Z,1.88
2018-06-25T14:01:57.671Z,1.99
2018-06-25T14:07:52.691Z,2.02
2018-06-25T14:13:47.681Z,2.09
2018-06-25T14:19:42.674Z,2.26
2018-06-25T14:25:37.738Z,2.32
2018-06-25T14:31:32.715Z,2.34
2018-06-25T14:37:27.717Z,1.86
2018-06-25T14:43:22.731Z,1.76
2018-06-25T14:49:17.766Z,1.6
2018-06-25T14:55:12.729Z,1.59
2018-06-25T15:01:07.688Z,1.67
2018-06-25T15:07:02.729Z,1.93
2018-06-25T15:12:57.708Z,1.67
2018-06-25T15:18:52.696Z,1.75
2018-06-25T15:24:47.705Z,1.85
2018-06-25T15:30:42.686Z,1.66
2018-06-25T15:36:37.731Z,2.29
2018-06-25T15:42:32.777Z,1.92
2018-06-25T15:48:27.717Z,1.91
2018-06-25T15:54:22.706Z,1.77
2018-06-25T16:00:17.736Z,1.97
2018-06-25T16:06:12.757Z,1.82
2018-06-25T16:12:07.763Z,1.51
2018-06-25T16:18:02.751Z,1.73
2018-06-25T16:23:57.750Z,1.99
2018-06-25T16:29:52.705Z,1.65
2018-06-25T16:35:47.705Z,1.67
2018-06-25T16:41:42.734Z,1.74
2018-06-25T16:47:37.761Z,1.64
2018-06-25T16:53:32.725Z,1.56
2018-06-25T16:59:27.728Z,1.8
2018-06-25T17:05:22.719Z,1.79
2018-06-25T17:11:17.707Z,1.76
2018-06-25T17:17:12.754Z,1.76
2018-06-25T17:23:07.740Z,1.86
2018-06-25T17:29:02.697Z,1.53
2018-06-25T17:34:57.722Z,1.94
2018-06-25T17:40:52.745Z,1.85
2018-06-25T17:46:47.724Z,1.86
2018-06-25T17:52:42.715Z,1.83
2018-06-25T17:58:37.757Z,1.74
2018-06-25T18:04:32.725Z,1.92
2018-06-25T18:10:27.704Z,1.68
2018-06-25T18:16:22.797Z,1.75
2018-06-25T18:22:17.720Z,2.06
2018-06-25T18:28:12.760Z,1.94
2018-06-25T18:34:07.738Z,1.95
2018-06-25T18:40:02.720Z,1.8
2018-06-25T18:45:57.741Z,1.76
2018-06-25T18:51:52.730Z,1.78
2018-06-25T18:57:47.709Z,2.16
2018-06-25T19:03:42.745Z,1.99
2018-06-25T19:09:37.756Z,2.03
2018-06-25T19:15:32.752Z,2.01
2018-06-25T19:21:27.755Z,1.94
2018-06-25T19:27:22.799Z,1.67
2018-06-25T19:33:17.726Z,2.59
2018-06-25T19:39:12.757Z,1.64
2018-06-25T19:45:07.787Z,1.68
2018-06-25T19:51:02.800Z,2.15
2018-06-25T19:56:57.722Z,1.73
2018-06-25T20:02:52.779Z,1.94
2018-06-25T20:08:47.740Z,1.9
2018-06-25T20:14:42.869Z,1.77
2018-06-25T20:20:37.798Z,2.16
2018-06-25T20:26:32.904Z,1.83
2018-06-25T20:32:27.897Z,2.06
2018-06-25T20:38:22.740Z,2.36
2018-06-25T20:44:17.749Z,2.04
2018-06-25T20:50:12.742Z,2.22
2018-06-25T20:56:07.741Z,2.16
2018-06-25T21:02:02.793Z,2.03
2018-06-25T21:07:57.726Z,2.03
2018-06-25T21:13:52.718Z,2.23
2018-06-25T21:19:47.716Z,1.91
2018-06-25T21:25:42.722Z,2.79
2018-06-25T21:31:37.767Z,2.15
2018-06-25T21:37:32.722Z,2.1
2018-06-25T21:43:27.780Z,2.07
2018-06-25T21:49:22.736Z,2
2018-06-25T21:55:17.707Z,2.12
2018-06-25T22:01:12.723Z,1.88
2018-06-25T22:07:07.732Z,2.09
2018-06-25T22:13:02.755Z,2.11
2018-06-25T22:18:57.773Z,2.02
2018-06-25T22:24:52.770Z,1.72
2018-06-25T22:30:47.791Z,1.77
2018-06-25T22:36:42.768Z,1.96
2018-06-25T22:42:37.752Z,2.23
2018-06-25T22:48:32.756Z,2.04
2018-06-25T22:54:27.860Z,2.27
2018-06-25T23:00:22.800Z,2.54
2018-06-25T23:06:17.805Z,2.83
2018-06-25T23:12:12.755Z,2.57
2018-06-25T23:18:07.753Z,2.48
2018-06-25T23:24:02.801Z,2.46
2018-06-25T23:29:57.769Z,2.28
2018-06-25T23:35:52.775Z,2.05
2018-06-25T23:41:47.814Z,2.15
2018-06-25T23:47:42.791Z,2.04
2018-06-25T23:53:37.738Z,2.22
2018-06-25T23:59:32.758Z,2.13
